sensor_id;sensor_type;location;lat;lon;timestamp;pressure;altitude;pressure_sealevel;temperature;humidity
49104;BME280;34915;52.926;11.116;2023-04-28T00:00:20;101804.38;;;5.60;90.92
49104;BME280;34915;52.926;11.116;2023-04-28T00:02:46;101805.44;;;5.54;91.32
49104;BME280;34915;52.926;11.116;2023-04-28T00:05:12;101803.69;;;5.55;92.07
49104;BME280;34915;52.926;11.116;2023-04-28T00:07:38;101808.31;;;5.47;92.09
49104;BME280;34915;52.926;11.116;2023-04-28T00:10:04;101802.22;;;5.46;92.10
49104;BME280;34915;52.926;11.116;2023-04-28T00:12:30;101808.53;;;5.41;93.73
49104;BME280;34915;52.926;11.116;2023-04-28T00:14:56;101805.31;;;5.33;93.31
49104;BME280;34915;52.926;11.116;2023-04-28T00:17:21;101798.22;;;5.35;94.28
49104;BME280;34915;52.926;11.116;2023-04-28T00:19:47;101794.91;;;5.30;94.18
49104;BME280;34915;52.926;11.116;2023-04-28T00:22:13;101792.28;;;5.29;93.71
49104;BME280;34915;52.926;11.116;2023-04-28T00:24:39;101789.91;;;5.21;95.70
49104;BME280;34915;52.926;11.116;2023-04-28T00:27:06;101789.06;;;5.21;95.99
49104;BME280;34915;52.926;11.116;2023-04-28T00:29:32;101788.13;;;5.23;95.70
49104;BME280;34915;52.926;11.116;2023-04-28T00:31:59;101784.66;;;5.21;95.75
49104;BME280;34915;52.926;11.116;2023-04-28T00:34:25;101775.09;;;5.20;96.23
49104;BME280;34915;52.926;11.116;2023-04-28T00:36:50;101778.56;;;5.21;95.85
49104;BME280;34915;52.926;11.116;2023-04-28T00:39:16;101784.03;;;5.15;96.69
49104;BME280;34915;52.926;11.116;2023-04-28T00:41:42;101774.47;;;5.12;96.73
49104;BME280;34915;52.926;11.116;2023-04-28T00:44:09;101779.91;;;5.06;96.18
49104;BME280;34915;52.926;11.116;2023-04-28T00:46:34;101770.31;;;5.05;96.79
49104;BME280;34915;52.926;11.116;2023-04-28T00:49:00;101766.84;;;5.05;96.38
49104;BME280;34915;52.926;11.116;2023-04-28T00:51:26;101764.25;;;5.03;96.06
49104;BME280;34915;52.926;11.116;2023-04-28T00:53:55;101763.47;;;5.01;95.03
49104;BME280;34915;52.926;11.116;2023-04-28T00:56:24;101768.09;;;4.93;94.99
49104;BME280;34915;52.926;11.116;2023-04-28T00:58:52;101766.50;;;4.89;95.84
49104;BME280;34915;52.926;11.116;2023-04-28T01:01:18;101764.75;;;4.88;95.87
49104;BME280;34915;52.926;11.116;2023-04-28T01:03:44;101759.59;;;4.86;98.07
49104;BME280;34915;52.926;11.116;2023-04-28T01:06:09;101765.91;;;4.80;98.52
49104;BME280;34915;52.926;11.116;2023-04-28T01:08:37;101758.28;;;4.73;99.02
49104;BME280;34915;52.926;11.116;2023-04-28T01:11:03;101755.09;;;4.62;99.60
49104;BME280;34915;52.926;11.116;2023-04-28T01:13:29;101760.44;;;4.59;100.00
49104;BME280;34915;52.926;11.116;2023-04-28T01:15:55;101762.97;;;4.62;100.00
49104;BME280;34915;52.926;11.116;2023-04-28T01:18:21;101757.03;;;4.57;99.63
49104;BME280;34915;52.926;11.116;2023-04-28T01:20:47;101754.59;;;4.51;100.00
49104;BME280;34915;52.926;11.116;2023-04-28T01:23:13;101755.66;;;4.44;100.00
49104;BME280;34915;52.926;11.116;2023-04-28T01:25:40;101753.97;;;4.43;100.00
49104;BME280;34915;52.926;11.116;2023-04-28T01:28:06;101748.06;;;4.35;100.00
49104;BME280;34915;52.926;11.116;2023-04-28T01:30:32;101746.47;;;4.30;100.00
49104;BME280;34915;52.926;11.116;2023-04-28T01:32:58;101746.56;;;4.27;100.00
49104;BME280;34915;52.926;11.116;2023-04-28T01:35:23;101738.75;;;4.25;99.99
49104;BME280;34915;52.926;11.116;2023-04-28T01:37:49;101742.31;;;4.24;100.00
49104;BME280;34915;52.926;11.116;2023-04-28T01:40:14;101747.69;;;4.18;99.71
49104;BME280;34915;52.926;11.116;2023-04-28T01:42:40;101747.78;;;4.15;100.00
49104;BME280;34915;52.926;11.116;2023-04-28T01:45:06;101743.66;;;4.08;100.00
49104;BME280;34915;52.926;11.116;2023-04-28T01:47:31;101746.34;;;4.05;100.00
49104;BME280;34915;52.926;11.116;2023-04-28T01:49:57;101741.34;;;3.96;100.00
49104;BME280;34915;52.926;11.116;2023-04-28T01:52:23;101748.31;;;3.97;100.00
49104;BME280;34915;52.926;11.116;2023-04-28T01:54:51;101736.06;;;3.99;100.00
49104;BME280;34915;52.926;11.116;2023-04-28T01:57:17;101737.00;;;3.97;100.00
49104;BME280;34915;52.926;11.116;2023-04-28T01:59:42;101731.03;;;3.90;100.00
49104;BME280;34915;52.926;11.116;2023-04-28T02:02:08;101734.50;;;3.92;100.00
49104;BME280;34915;52.926;11.116;2023-04-28T02:04:33;101743.16;;;3.94;100.00
49104;BME280;34915;52.926;11.116;2023-04-28T02:06:59;101731.03;;;3.90;99.76
49104;BME280;34915;52.926;11.116;2023-04-28T02:09:24;101738.09;;;3.89;99.78
49104;BME280;34915;52.926;11.116;2023-04-28T02:11:50;101727.63;;;3.89;100.00
49104;BME280;34915;52.926;11.116;2023-04-28T02:14:15;101734.59;;;3.90;100.00
49104;BME280;34915;52.926;11.116;2023-04-28T02:16:41;101736.38;;;3.88;100.00
49104;BME280;34915;52.926;11.116;2023-04-28T02:19:07;101727.69;;;3.86;100.00
49104;BME280;34915;52.926;11.116;2023-04-28T02:21:32;101728.72;;;3.80;100.00
49104;BME280;34915;52.926;11.116;2023-04-28T02:23:58;101734.84;;;3.81;100.00
49104;BME280;34915;52.926;11.116;2023-04-28T02:26:24;101734.84;;;3.81;100.00
49104;BME280;34915;52.926;11.116;2023-04-28T02:28:50;101730.44;;;3.81;100.00
49104;BME280;34915;52.926;11.116;2023-04-28T02:31:15;101732.19;;;3.82;100.00
49104;BME280;34915;52.926;11.116;2023-04-28T02:33:41;101734.84;;;3.81;100.00
49104;BME280;34915;52.926;11.116;2023-04-28T02:36:07;101731.47;;;3.76;100.00
49104;BME280;34915;52.926;11.116;2023-04-28T02:38:33;101735.06;;;3.72;100.00
49104;BME280;34915;52.926;11.116;2023-04-28T02:41:00;101726.41;;;3.70;100.00
49104;BME280;34915;52.926;11.116;2023-04-28T02:43:27;101726.50;;;3.67;100.00
49104;BME280;34915;52.926;11.116;2023-04-28T02:45:53;101719.53;;;3.66;100.00
49104;BME280;34915;52.926;11.116;2023-04-28T02:48:19;101726.56;;;3.64;100.00
49104;BME280;34915;52.926;11.116;2023-04-28T02:50:45;101721.41;;;3.61;100.00
49104;BME280;34915;52.926;11.116;2023-04-28T02:53:11;101710.25;;;3.54;100.00
49104;BME280;34915;52.926;11.116;2023-04-28T02:55:39;101711.28;;;3.49;100.00
49104;BME280;34915;52.926;11.116;2023-04-28T02:58:04;101704.41;;;3.45;100.00
49104;BME280;34915;52.926;11.116;2023-04-28T03:00:30;101704.41;;;3.45;100.00
49104;BME280;34915;52.926;11.116;2023-04-28T03:02:55;101697.59;;;3.38;100.00
49104;BME280;34915;52.926;11.116;2023-04-28T03:05:21;101697.69;;;3.35;100.00
49104;BME280;34915;52.926;11.116;2023-04-28T03:07:47;101692.53;;;3.32;100.00
49104;BME280;34915;52.926;11.116;2023-04-28T03:10:15;101699.66;;;3.27;100.00
49104;BME280;34915;52.926;11.116;2023-04-28T03:12:40;101689.28;;;3.24;100.00
49104;BME280;34915;52.926;11.116;2023-04-28T03:15:06;101684.28;;;3.15;100.00
49104;BME280;34915;52.926;11.116;2023-04-28T03:17:33;101690.53;;;3.10;100.00
49104;BME280;34915;52.926;11.116;2023-04-28T03:20:06;101691.44;;;3.07;100.00
49104;BME280;34915;52.926;11.116;2023-04-28T03:22:32;101683.59;;;3.07;100.00
49104;BME280;34915;52.926;11.116;2023-04-28T03:24:57;101688.09;;;3.02;100.00
49104;BME280;34915;52.926;11.116;2023-04-28T03:27:23;101679.50;;;2.97;100.00
49104;BME280;34915;52.926;11.116;2023-04-28T03:29:48;101677.78;;;2.96;100.00
49104;BME280;34915;52.926;11.116;2023-04-28T03:32:14;101683.03;;;2.96;100.00
49104;BME280;34915;52.926;11.116;2023-04-28T03:34:39;101672.63;;;2.93;100.00
49104;BME280;34915;52.926;11.116;2023-04-28T03:37:05;101676.13;;;2.92;100.00
49104;BME280;34915;52.926;11.116;2023-04-28T03:39:31;101669.09;;;2.94;100.00
49104;BME280;34915;52.926;11.116;2023-04-28T03:41:59;101676.13;;;2.92;100.00
49104;BME280;34915;52.926;11.116;2023-04-28T03:44:25;101671.06;;;2.87;100.00
49104;BME280;34915;52.926;11.116;2023-04-28T03:46:51;101662.38;;;2.85;100.00
49104;BME280;34915;52.926;11.116;2023-04-28T03:49:16;101661.53;;;2.84;100.00
49104;BME280;34915;52.926;11.116;2023-04-28T03:51:42;101660.75;;;2.81;100.00
49104;BME280;34915;52.926;11.116;2023-04-28T03:54:07;101671.22;;;2.81;100.00
49104;BME280;34915;52.926;11.116;2023-04-28T03:56:33;101660.84;;;2.78;100.00
49104;BME280;34915;52.926;11.116;2023-04-28T03:58:59;101662.34;;;2.88;100.00
49104;BME280;34915;52.926;11.116;2023-04-28T04:01:24;101660.59;;;2.87;100.00
49104;BME280;34915;52.926;11.116;2023-04-28T04:03:50;101662.34;;;2.88;100.00
49104;BME280;34915;52.926;11.116;2023-04-28T04:06:16;101664.09;;;2.86;100.00
49104;BME280;34915;52.926;11.116;2023-04-28T04:08:42;101656.50;;;2.77;99.61
49104;BME280;34915;52.926;11.116;2023-04-28T04:11:07;101657.31;;;2.79;99.94
49104;BME280;34915;52.926;11.116;2023-04-28T04:13:33;101648.66;;;2.77;100.00
49104;BME280;34915;52.926;11.116;2023-04-28T04:15:59;101650.38;;;2.78;100.00
49104;BME280;34915;52.926;11.116;2023-04-28T04:18:24;101658.09;;;2.82;100.00
49104;BME280;34915;52.926;11.116;2023-04-28T04:20:51;101648.56;;;2.80;100.00
49104;BME280;34915;52.926;11.116;2023-04-28T04:23:18;101655.53;;;2.81;100.00
49104;BME280;34915;52.926;11.116;2023-04-28T04:25:44;101650.13;;;2.87;100.00
49104;BME280;34915;52.926;11.116;2023-04-28T04:28:09;101647.59;;;2.84;100.00
49104;BME280;34915;52.926;11.116;2023-04-28T04:30:35;101648.31;;;2.89;100.00
49104;BME280;34915;52.926;11.116;2023-04-28T04:33:00;101643.94;;;2.91;100.00
49104;BME280;34915;52.926;11.116;2023-04-28T04:35:26;101641.16;;;2.96;100.00
49104;BME280;34915;52.926;11.116;2023-04-28T04:37:52;101638.34;;;3.04;100.00
49104;BME280;34915;52.926;11.116;2023-04-28T04:40:18;101630.28;;;3.11;99.72
49104;BME280;34915;52.926;11.116;2023-04-28T04:42:43;101625.72;;;3.18;99.75
49104;BME280;34915;52.926;11.116;2023-04-28T04:45:09;101623.69;;;3.29;99.84
49104;BME280;34915;52.926;11.116;2023-04-28T04:47:35;101624.28;;;3.38;100.00
49104;BME280;34915;52.926;11.116;2023-04-28T04:50:00;101618.66;;;3.51;100.00
49104;BME280;34915;52.926;11.116;2023-04-28T04:52:26;101621.88;;;3.61;99.48
49104;BME280;34915;52.926;11.116;2023-04-28T04:54:51;101617.38;;;3.66;98.46
49104;BME280;34915;52.926;11.116;2023-04-28T04:57:17;101611.84;;;3.76;99.37
49104;BME280;34915;52.926;11.116;2023-04-28T04:59:43;101611.47;;;3.88;99.52
49104;BME280;34915;52.926;11.116;2023-04-28T05:02:08;101608.63;;;3.95;99.55
49104;BME280;34915;52.926;11.116;2023-04-28T05:04:34;101606.59;;;4.03;98.35
49104;BME280;34915;52.926;11.116;2023-04-28T05:06:59;101596.72;;;4.13;97.85
49104;BME280;34915;52.926;11.116;2023-04-28T05:09:25;101595.56;;;4.21;98.12
49104;BME280;34915;52.926;11.116;2023-04-28T05:11:51;101593.44;;;4.32;98.93
49104;BME280;34915;52.926;11.116;2023-04-28T05:14:16;101594.03;;;4.41;98.42
49104;BME280;34915;52.926;11.116;2023-04-28T05:16:42;101595.56;;;4.47;96.67
49104;BME280;34915;52.926;11.116;2023-04-28T05:19:08;101589.28;;;4.52;94.24
49104;BME280;34915;52.926;11.116;2023-04-28T05:21:33;101588.16;;;4.59;93.07
49104;BME280;34915;52.926;11.116;2023-04-28T05:23:59;101590.53;;;4.67;92.67
49104;BME280;34915;52.926;11.116;2023-04-28T05:26:24;101585.72;;;4.79;92.32
49104;BME280;34915;52.926;11.116;2023-04-28T05:28:50;101581.81;;;4.90;90.76
49104;BME280;34915;52.926;11.116;2023-04-28T05:31:16;101580.25;;;5.09;91.12
49104;BME280;34915;52.926;11.116;2023-04-28T05:33:42;101581.22;;;5.31;87.06
49104;BME280;34915;52.926;11.116;2023-04-28T05:36:09;101578.50;;;5.57;87.99
49104;BME280;34915;52.926;11.116;2023-04-28T05:38:35;101571.38;;;5.83;87.50
49104;BME280;34915;52.926;11.116;2023-04-28T05:41:01;101569.94;;;5.97;85.57
49104;BME280;34915;52.926;11.116;2023-04-28T05:43:27;101566.56;;;6.15;84.08
49104;BME280;34915;52.926;11.116;2023-04-28T05:45:52;101571.19;;;6.30;84.21
49104;BME280;34915;52.926;11.116;2023-04-28T05:48:18;101554.00;;;6.43;80.80
49104;BME280;34915;52.926;11.116;2023-04-28T05:50:44;101555.22;;;6.56;80.39
49104;BME280;34915;52.926;11.116;2023-04-28T05:53:10;101550.03;;;6.74;82.89
49104;BME280;34915;52.926;11.116;2023-04-28T05:55:35;101546.69;;;6.90;82.23
49104;BME280;34915;52.926;11.116;2023-04-28T05:58:02;101547.00;;;7.03;79.88
49104;BME280;34915;52.926;11.116;2023-04-28T06:00:28;101549.91;;;7.17;77.70
49104;BME280;34915;52.926;11.116;2023-04-28T06:02:53;101535.41;;;7.27;76.89
49104;BME280;34915;52.926;11.116;2023-04-28T06:05:19;101538.66;;;7.32;77.09
49104;BME280;34915;52.926;11.116;2023-04-28T06:07:45;101534.00;;;7.38;78.63
49104;BME280;34915;52.926;11.116;2023-04-28T06:10:10;101532.06;;;7.41;76.55
49104;BME280;34915;52.926;11.116;2023-04-28T06:12:36;101528.00;;;7.53;75.79
49104;BME280;34915;52.926;11.116;2023-04-28T06:15:03;101525.88;;;7.61;78.40
49104;BME280;34915;52.926;11.116;2023-04-28T06:17:29;101522.03;;;7.68;79.12
49104;BME280;34915;52.926;11.116;2023-04-28T06:19:59;101521.88;;;7.71;74.89
49104;BME280;34915;52.926;11.116;2023-04-28T06:22:25;101528.88;;;7.72;74.56
49104;BME280;34915;52.926;11.116;2023-04-28T06:24:50;101522.53;;;7.76;74.59
49104;BME280;34915;52.926;11.116;2023-04-28T06:27:16;101523.50;;;7.91;75.13
49104;BME280;34915;52.926;11.116;2023-04-28T06:29:42;101524.78;;;8.01;75.98
49104;BME280;34915;52.926;11.116;2023-04-28T06:32:07;101530.44;;;8.12;76.30
49104;BME280;34915;52.926;11.116;2023-04-28T06:34:34;101519.44;;;8.21;75.75
49104;BME280;34915;52.926;11.116;2023-04-28T06:37:00;101518.66;;;8.36;75.74
49104;BME280;34915;52.926;11.116;2023-04-28T06:39:26;101517.91;;;8.51;74.32
49104;BME280;34915;52.926;11.116;2023-04-28T06:41:51;101512.03;;;8.63;72.99
49104;BME280;34915;52.926;11.116;2023-04-28T06:44:17;101509.69;;;8.74;72.90
49104;BME280;34915;52.926;11.116;2023-04-28T06:46:43;101519.78;;;8.82;72.07
49104;BME280;34915;52.926;11.116;2023-04-28T06:49:08;101517.44;;;8.93;71.50
49104;BME280;34915;52.926;11.116;2023-04-28T06:51:34;101520.22;;;9.07;71.68
49104;BME280;34915;52.926;11.116;2023-04-28T06:53:59;101518.88;;;9.16;70.64
49104;BME280;34915;52.926;11.116;2023-04-28T06:56:25;101510.53;;;9.23;70.88
49104;BME280;34915;52.926;11.116;2023-04-28T06:58:51;101498.53;;;9.33;69.93
49104;BME280;34915;52.926;11.116;2023-04-28T07:01:17;101498.50;;;9.50;69.40
49104;BME280;34915;52.926;11.116;2023-04-28T07:03:42;101495.94;;;9.64;67.52
49104;BME280;34915;52.926;11.116;2023-04-28T07:06:08;101486.88;;;9.83;66.90
49104;BME280;34915;52.926;11.116;2023-04-28T07:08:34;101490.81;;;9.91;65.95
49104;BME280;34915;52.926;11.116;2023-04-28T07:11:00;101491.53;;;10.10;69.66
49104;BME280;34915;52.926;11.116;2023-04-28T07:13:29;101487.06;;;10.26;65.47
49104;BME280;34915;52.926;11.116;2023-04-28T07:15:55;101482.94;;;10.36;65.66
49104;BME280;34915;52.926;11.116;2023-04-28T07:18:21;101475.38;;;10.44;65.68
49104;BME280;34915;52.926;11.116;2023-04-28T07:20:46;101472.97;;;10.55;64.66
49104;BME280;34915;52.926;11.116;2023-04-28T07:23:13;101466.38;;;10.76;61.48
49104;BME280;34915;52.926;11.116;2023-04-28T07:25:39;101470.38;;;10.96;62.37
49104;BME280;34915;52.926;11.116;2023-04-28T07:28:07;101453.75;;;11.08;60.26
49104;BME280;34915;52.926;11.116;2023-04-28T07:30:34;101458.47;;;11.17;61.14
49104;BME280;34915;52.926;11.116;2023-04-28T07:33:00;101452.59;;;11.26;62.64
49104;BME280;34915;52.926;11.116;2023-04-28T07:35:26;101448.81;;;11.30;62.19
49104;BME280;34915;52.926;11.116;2023-04-28T07:37:52;101444.09;;;11.49;59.19
49104;BME280;34915;52.926;11.116;2023-04-28T07:40:18;101433.97;;;11.68;58.22
49104;BME280;34915;52.926;11.116;2023-04-28T07:42:44;101438.53;;;11.80;59.21
49104;BME280;34915;52.926;11.116;2023-04-28T07:45:09;101438.56;;;11.92;59.02
49104;BME280;34915;52.926;11.116;2023-04-28T07:47:35;101436.91;;;12.03;58.01
49104;BME280;34915;52.926;11.116;2023-04-28T07:50:02;101437.81;;;12.16;55.13
49104;BME280;34915;52.926;11.116;2023-04-28T07:52:31;101428.50;;;12.23;55.00
49104;BME280;34915;52.926;11.116;2023-04-28T07:54:58;101424.25;;;12.33;55.78
49104;BME280;34915;52.926;11.116;2023-04-28T07:57:23;101425.13;;;12.46;57.95
49104;BME280;34915;52.926;11.116;2023-04-28T07:59:49;101427.50;;;12.63;57.69
49104;BME280;34915;52.926;11.116;2023-04-28T08:02:18;101422.22;;;12.87;54.42
49104;BME280;34915;52.926;11.116;2023-04-28T08:04:45;101419.47;;;13.01;53.21
49104;BME280;34915;52.926;11.116;2023-04-28T08:07:11;101412.00;;;13.06;55.12
49104;BME280;34915;52.926;11.116;2023-04-28T08:09:37;101421.03;;;13.16;53.64
49104;BME280;34915;52.926;11.116;2023-04-28T08:12:04;101417.28;;;13.31;56.44
49104;BME280;34915;52.926;11.116;2023-04-28T08:14:30;101425.34;;;13.42;55.70
49104;BME280;34915;52.926;11.116;2023-04-28T08:16:55;101407.91;;;13.38;54.45
49104;BME280;34915;52.926;11.116;2023-04-28T08:19:21;101416.38;;;13.55;54.16
49104;BME280;34915;52.926;11.116;2023-04-28T08:21:47;101416.56;;;13.65;54.09
49104;BME280;34915;52.926;11.116;2023-04-28T08:24:13;101409.09;;;13.70;54.45
49104;BME280;34915;52.926;11.116;2023-04-28T08:26:39;101415.28;;;13.70;54.53
49104;BME280;34915;52.926;11.116;2023-04-28T08:29:04;101407.97;;;13.61;53.95
49104;BME280;34915;52.926;11.116;2023-04-28T08:31:30;101414.06;;;13.51;51.26
49104;BME280;34915;52.926;11.116;2023-04-28T08:33:55;101409.09;;;13.70;55.62
49104;BME280;34915;52.926;11.116;2023-04-28T08:36:21;101410.09;;;13.79;54.83
49104;BME280;34915;52.926;11.116;2023-04-28T08:38:49;101404.13;;;13.88;51.85
49104;BME280;34915;52.926;11.116;2023-04-28T08:41:15;101398.56;;;13.91;53.29
49104;BME280;34915;52.926;11.116;2023-04-28T08:43:41;101401.00;;;13.94;53.27
49104;BME280;34915;52.926;11.116;2023-04-28T08:46:09;101394.88;;;13.81;50.47
49104;BME280;34915;52.926;11.116;2023-04-28T08:48:42;101399.06;;;13.96;53.07
49104;BME280;34915;52.926;11.116;2023-04-28T08:51:14;101393.81;;;14.07;50.72
49104;BME280;34915;52.926;11.116;2023-04-28T08:53:43;101397.47;;;14.06;51.00
49104;BME280;34915;52.926;11.116;2023-04-28T08:56:09;101393.47;;;14.35;53.87
49104;BME280;34915;52.926;11.116;2023-04-28T08:58:38;101390.09;;;14.55;52.71
49104;BME280;34915;52.926;11.116;2023-04-28T09:01:04;101376.34;;;14.82;53.95
49104;BME280;34915;52.926;11.116;2023-04-28T09:03:30;101380.22;;;14.89;50.20
49104;BME280;34915;52.926;11.116;2023-04-28T09:05:57;101373.69;;;15.04;51.13
49104;BME280;34915;52.926;11.116;2023-04-28T09:08:23;101373.09;;;15.23;51.38
49104;BME280;34915;52.926;11.116;2023-04-28T09:11:04;101366.16;;;15.42;50.86
49104;BME280;34915;52.926;11.116;2023-04-28T09:13:31;101360.34;;;15.37;50.17
49104;BME280;34915;52.926;11.116;2023-04-28T09:16:01;101360.94;;;15.40;48.86
49104;BME280;34915;52.926;11.116;2023-04-28T09:18:28;101358.88;;;15.11;47.47
49104;BME280;34915;52.926;11.116;2023-04-28T09:21:12;101354.00;;;15.49;52.30
49104;BME280;34915;52.926;11.116;2023-04-28T09:23:47;101344.22;;;15.80;48.73
49104;BME280;34915;52.926;11.116;2023-04-28T09:26:16;101354.63;;;16.15;49.14
49104;BME280;34915;52.926;11.116;2023-04-28T09:28:41;101332.56;;;16.33;49.22
49104;BME280;34915;52.926;11.116;2023-04-28T09:31:24;101333.50;;;16.43;48.01
49104;BME280;34915;52.926;11.116;2023-04-28T09:33:57;101337.00;;;16.23;48.36
49104;BME280;34915;52.926;11.116;2023-04-28T09:36:29;101342.44;;;16.22;48.61
49104;BME280;34915;52.926;11.116;2023-04-28T09:38:58;101330.59;;;16.35;48.68
49104;BME280;34915;52.926;11.116;2023-04-28T09:41:43;101329.56;;;16.47;47.43
49104;BME280;34915;52.926;11.116;2023-04-28T09:44:17;101341.25;;;16.46;47.40
49104;BME280;34915;52.926;11.116;2023-04-28T09:46:44;101334.06;;;16.46;48.75
49104;BME280;34915;52.926;11.116;2023-04-28T09:49:11;101333.09;;;16.27;47.45
49104;BME280;34915;52.926;11.116;2023-04-28T09:51:37;101331.81;;;16.11;47.56
49104;BME280;34915;52.926;11.116;2023-04-28T09:54:03;101330.44;;;16.16;49.23
49104;BME280;34915;52.926;11.116;2023-04-28T09:56:32;101333.59;;;16.21;47.25
49104;BME280;34915;52.926;11.116;2023-04-28T09:59:00;101320.38;;;16.60;47.43
49104;BME280;34915;52.926;11.116;2023-04-28T10:01:31;101317.97;;;16.96;47.15
49104;BME280;34915;52.926;11.116;2023-04-28T10:03:59;101310.94;;;16.95;46.25
49104;BME280;34915;52.926;11.116;2023-04-28T10:06:26;101307.03;;;16.99;47.05
49104;BME280;34915;52.926;11.116;2023-04-28T10:08:54;101299.16;;;17.17;46.61
49104;BME280;34915;52.926;11.116;2023-04-28T10:11:22;101303.41;;;17.10;48.03
49104;BME280;34915;52.926;11.116;2023-04-28T10:13:50;101301.69;;;16.99;44.55
49104;BME280;34915;52.926;11.116;2023-04-28T10:16:15;101294.16;;;17.23;47.55
49104;BME280;34915;52.926;11.116;2023-04-28T10:18:42;101296.72;;;17.34;44.81
49104;BME280;34915;52.926;11.116;2023-04-28T10:21:11;101288.25;;;17.29;47.52
49104;BME280;34915;52.926;11.116;2023-04-28T10:24:08;101283.72;;;16.90;43.79
49104;BME280;34915;52.926;11.116;2023-04-28T10:29:32;101279.38;;;16.89;45.41
49104;BME280;34915;52.926;11.116;2023-04-28T10:32:23;101282.88;;;16.80;47.20
49104;BME280;34915;52.926;11.116;2023-04-28T10:38:04;101283.63;;;16.42;48.19
49104;BME280;34915;52.926;11.116;2023-04-28T10:40:43;101268.38;;;16.33;50.85
49104;BME280;34915;52.926;11.116;2023-04-28T10:43:13;101280.25;;;16.40;50.54
49104;BME280;34915;52.926;11.116;2023-04-28T10:56:16;101258.59;;;16.73;46.39
49104;BME280;34915;52.926;11.116;2023-04-28T10:59:23;101250.63;;;16.91;48.15
49104;BME280;34915;52.926;11.116;2023-04-28T11:01:34;101252.00;;;16.77;46.78
49104;BME280;34915;52.926;11.116;2023-04-28T11:06:40;101247.78;;;16.83;46.04
49104;BME280;34915;52.926;11.116;2023-04-28T11:17:00;101245.72;;;16.57;49.72
49104;BME280;34915;52.926;11.116;2023-04-28T11:19:31;101243.19;;;16.56;47.10
49104;BME280;34915;52.926;11.116;2023-04-28T11:21:59;101238.59;;;16.47;49.08
49104;BME280;34915;52.926;11.116;2023-04-28T11:24:26;101245.22;;;16.73;49.06
49104;BME280;34915;52.926;11.116;2023-04-28T11:26:59;101243.28;;;16.93;46.96
49104;BME280;34915;52.926;11.116;2023-04-28T11:29:35;101249.84;;;17.10;47.21
49104;BME280;34915;52.926;11.116;2023-04-28T11:32:02;101239.41;;;17.16;46.24
49104;BME280;34915;52.926;11.116;2023-04-28T11:34:28;101240.63;;;17.42;48.62
49104;BME280;34915;52.926;11.116;2023-04-28T11:36:53;101225.97;;;17.65;46.98
49104;BME280;34915;52.926;11.116;2023-04-28T11:39:30;101229.63;;;17.82;46.41
49104;BME280;34915;52.926;11.116;2023-04-28T11:41:57;101214.81;;;17.78;45.43
49104;BME280;34915;52.926;11.116;2023-04-28T11:44:26;101210.59;;;17.67;45.74
49104;BME280;34915;52.926;11.116;2023-04-28T11:46:55;101216.78;;;17.67;46.96
49104;BME280;34915;52.926;11.116;2023-04-28T11:49:22;101220.75;;;17.54;46.90
49104;BME280;34915;52.926;11.116;2023-04-28T11:51:54;101213.56;;;17.64;48.02
49104;BME280;34915;52.926;11.116;2023-04-28T11:54:38;101204.66;;;17.54;49.27
49104;BME280;34915;52.926;11.116;2023-04-28T11:57:16;101206.22;;;17.47;46.66
49104;BME280;34915;52.926;11.116;2023-04-28T11:59:42;101203.25;;;17.50;47.12
49104;BME280;34915;52.926;11.116;2023-04-28T12:02:07;101202.84;;;17.64;46.55
49104;BME280;34915;52.926;11.116;2023-04-28T12:04:35;101204.78;;;17.62;48.03
49104;BME280;34915;52.926;11.116;2023-04-28T12:07:15;101205.94;;;17.40;46.81
49104;BME280;34915;52.926;11.116;2023-04-28T12:09:48;101212.38;;;17.19;47.90
49104;BME280;34915;52.926;11.116;2023-04-28T12:12:32;101209.66;;;17.00;45.41
49104;BME280;34915;52.926;11.116;2023-04-28T12:15:03;101206.09;;;16.90;48.21
49104;BME280;34915;52.926;11.116;2023-04-28T12:17:37;101197.91;;;16.82;48.47
49104;BME280;34915;52.926;11.116;2023-04-28T12:20:08;101210.88;;;16.77;48.21
49104;BME280;34915;52.926;11.116;2023-04-28T12:22:45;101194.13;;;16.46;49.47
49104;BME280;34915;52.926;11.116;2023-04-28T12:25:18;101192.72;;;16.51;48.57
49104;BME280;34915;52.926;11.116;2023-04-28T12:28:03;101187.34;;;16.42;49.45
49104;BME280;34915;52.926;11.116;2023-04-28T12:30:34;101184.41;;;16.45;48.47
49104;BME280;34915;52.926;11.116;2023-04-28T12:33:02;101194.13;;;16.46;47.42
49104;BME280;34915;52.926;11.116;2023-04-28T12:35:29;101183.44;;;16.46;47.96
49104;BME280;34915;52.926;11.116;2023-04-28T12:37:55;101186.53;;;16.51;49.79
49104;BME280;34915;52.926;11.116;2023-04-28T12:40:22;101181.31;;;16.40;47.71
49104;BME280;34915;52.926;11.116;2023-04-28T12:42:48;101183.44;;;16.46;49.10
49104;BME280;34915;52.926;11.116;2023-04-28T12:45:15;101171.91;;;16.55;51.18
49104;BME280;34915;52.926;11.116;2023-04-28T12:47:41;101178.44;;;16.62;49.13
49104;BME280;34915;52.926;11.116;2023-04-28T12:50:07;101174.75;;;16.53;48.59
49104;BME280;34915;52.926;11.116;2023-04-28T12:52:33;101176.38;;;16.45;49.66
49104;BME280;34915;52.926;11.116;2023-04-28T12:55:00;101179.16;;;16.34;50.59
49104;BME280;34915;52.926;11.116;2023-04-28T12:57:25;101173.69;;;16.35;50.43
49104;BME280;34915;52.926;11.116;2023-04-28T12:59:53;101173.28;;;16.40;51.39
49104;BME280;34915;52.926;11.116;2023-04-28T13:02:20;101165.41;;;16.48;49.70
49104;BME280;34915;52.926;11.116;2023-04-28T13:04:46;101170.50;;;16.51;49.78
49104;BME280;34915;52.926;11.116;2023-04-28T13:07:12;101165.69;;;16.45;48.25
49104;BME280;34915;52.926;11.116;2023-04-28T13:09:38;101161.50;;;16.52;50.85